createdAt,value
2024-01-09T00:02:37.041Z,4.80
2024-01-09T00:07:40.439Z,3.25
2024-01-09T00:12:42.547Z,17.08
2024-01-09T00:17:44.915Z,12.13
2024-01-09T00:22:48.797Z,10.95
2024-01-09T00:27:50.966Z,12.75
2024-01-09T00:32:53.275Z,10.57
2024-01-09T00:37:56.806Z,5.82
2024-01-09T00:42:58.836Z,9.65
2024-01-09T00:48:01.028Z,10.27
2024-01-09T00:53:06.052Z,9.13
2024-01-09T00:58:08.163Z,5.05
2024-01-09T01:03:10.244Z,12.73
2024-01-09T01:08:13.706Z,9.32
2024-01-09T01:13:15.766Z,8.10
2024-01-09T01:18:17.958Z,13.23
2024-01-09T01:23:21.666Z,2.55
2024-01-09T01:28:23.798Z,3.03
2024-01-09T01:33:26.098Z,5.72
2024-01-09T01:38:29.744Z,10.95
2024-01-09T01:43:31.870Z,7.95
2024-01-09T01:48:35.292Z,22.10
2024-01-09T01:53:39.283Z,6.55
2024-01-09T01:58:41.866Z,5.85
2024-01-09T02:03:44.097Z,4.65
2024-01-09T02:08:48.586Z,5.38
2024-01-09T02:13:50.750Z,1.17
2024-01-09T02:18:52.985Z,3.38
2024-01-09T02:23:56.492Z,5.18
2024-01-09T02:29:05.153Z,8.32
2024-01-09T02:34:11.204Z,20.40
2024-01-09T02:39:13.603Z,2.97
2024-01-09T02:44:15.962Z,3.90
2024-01-09T02:49:19.530Z,4.50
2024-01-09T02:54:21.614Z,4.95
2024-01-09T02:59:25.814Z,9.30
2024-01-09T03:04:29.376Z,5.72
2024-01-09T03:09:34.480Z,7.78
2024-01-09T03:14:37.657Z,5.15
2024-01-09T03:19:41.250Z,1.77
2024-01-09T03:24:43.283Z,7.22
2024-01-09T03:29:45.368Z,1.85
2024-01-09T03:34:48.767Z,3.88
2024-01-09T03:39:50.804Z,7.28
2024-01-09T03:44:52.843Z,2.13
2024-01-09T03:49:56.305Z,2.80
2024-01-09T03:54:58.361Z,12.32
2024-01-09T04:00:00.458Z,3.38
2024-01-09T04:05:04.361Z,6.28
2024-01-09T04:10:07.162Z,8.95
2024-01-09T04:15:10.093Z,2.03
2024-01-09T04:20:14.262Z,4.82
2024-01-09T04:25:16.512Z,13.48
2024-01-09T04:30:18.581Z,9.02
2024-01-09T04:35:22.087Z,10.27
2024-01-09T04:40:24.142Z,9.43
2024-01-09T04:45:26.260Z,4.45
2024-01-09T04:50:29.747Z,2.88
2024-01-09T04:55:31.927Z,1.33
2024-01-09T05:00:34.018Z,4.85
2024-01-09T05:05:37.672Z,4.03
2024-01-09T05:10:40.025Z,1.45
2024-01-09T05:15:42.109Z,14.20
2024-01-09T05:20:45.584Z,8.60
2024-01-09T05:25:48.053Z,5.50
2024-01-09T05:30:50.318Z,4.00
2024-01-09T05:35:53.780Z,2.90
2024-01-09T05:40:55.871Z,0.98
2024-01-09T05:45:57.917Z,2.78
2024-01-09T05:51:01.377Z,0.65
2024-01-09T05:56:04.145Z,4.13
2024-01-09T06:01:06.220Z,3.13
2024-01-09T06:06:09.738Z,7.22
2024-01-09T06:11:11.901Z,7.85
2024-01-09T06:16:13.986Z,4.28
2024-01-09T06:21:18.433Z,1.80
2024-01-09T06:28:44.697Z,5.28
2024-01-09T06:33:46.924Z,8.75
2024-01-09T06:38:49.259Z,0.95
2024-01-09T06:43:52.782Z,3.50
2024-01-09T06:48:54.938Z,6.55
2024-01-09T06:53:57.122Z,3.20
2024-01-09T06:59:00.639Z,1.50
2024-01-09T07:04:03.037Z,3.85
2024-01-09T07:09:05.247Z,8.93
2024-01-09T07:14:11.264Z,2.10
2024-01-09T07:19:13.601Z,26.95
2024-01-09T07:24:16.208Z,11.63
2024-01-09T07:29:20.681Z,9.38
2024-01-09T07:34:22.899Z,9.25
2024-01-09T07:39:25.194Z,9.32
2024-01-09T07:44:28.652Z,24.65
2024-01-09T07:49:31.328Z,18.83
2024-01-09T07:54:33.595Z,11.23
2024-01-09T07:59:37.138Z,24.23
2024-01-09T08:04:40.516Z,15.07
2024-01-09T08:09:42.587Z,8.52
2024-01-09T08:14:46.161Z,7.10
2024-01-09T08:19:48.362Z,20.58
2024-01-09T08:24:50.474Z,8.63
2024-01-09T08:29:53.929Z,11.07
2024-01-09T08:34:56.983Z,11.45
2024-01-09T08:39:59.491Z,7.60
2024-01-09T08:45:03.104Z,10.10
2024-01-09T08:50:06.147Z,6.47
2024-01-09T08:55:08.673Z,20.73
2024-01-09T09:00:14.409Z,28.17
2024-01-09T09:05:16.567Z,7.90
2024-01-09T09:10:18.671Z,19.42
2024-01-09T09:15:22.064Z,22.55
2024-01-09T09:20:24.226Z,23.70
2024-01-09T09:25:26.289Z,22.13
2024-01-09T09:30:29.841Z,20.90
2024-01-09T09:35:32.563Z,24.90
2024-01-09T09:40:34.946Z,23.88
2024-01-09T09:45:39.322Z,31.55
2024-01-09T09:50:43.334Z,7.90
2024-01-09T09:55:46.921Z,16.33
2024-01-09T10:00:52.967Z,26.70
2024-01-09T10:05:56.954Z,15.65
2024-01-09T10:10:59.139Z,30.50
2024-01-09T10:16:03.977Z,11.65
2024-01-09T10:21:06.569Z,40.50
2024-01-09T10:26:11.180Z,25.63
2024-01-09T10:31:14.641Z,39.00
2024-01-09T10:36:17.199Z,17.13
2024-01-09T10:41:22.590Z,25.50
2024-01-09T10:46:27.994Z,10.05
2024-01-09T10:51:31.366Z,16.38
2024-01-09T10:56:35.195Z,25.92
2024-01-09T11:01:38.648Z,11.10
2024-01-09T11:06:46.106Z,16.15
2024-01-09T11:11:50.349Z,16.40
2024-01-09T11:16:55.284Z,41.17
2024-01-09T11:21:57.489Z,24.23
2024-01-09T11:27:13.533Z,19.52
2024-01-09T11:32:18.281Z,9.07
2024-01-09T11:37:23.145Z,22.42
2024-01-09T11:42:26.495Z,24.83
2024-01-09T11:47:30.382Z,14.65
2024-01-09T11:52:32.883Z,12.20
2024-01-09T11:57:35.206Z,12.73
2024-01-09T12:02:39.079Z,15.00
2024-01-09T12:07:41.760Z,23.35
2024-01-09T12:12:43.814Z,23.60
2024-01-09T12:17:57.305Z,26.90
2024-01-09T12:22:59.890Z,13.88
2024-01-09T12:28:03.374Z,9.85
2024-01-09T12:33:07.093Z,19.40
2024-01-09T12:38:09.608Z,13.90
2024-01-09T12:43:12.291Z,10.82
2024-01-09T12:48:16.148Z,10.15
2024-01-09T12:53:18.381Z,13.27
2024-01-09T12:58:20.536Z,18.15
2024-01-09T13:03:24.129Z,16.17
2024-01-09T13:08:26.339Z,10.82
2024-01-09T13:13:28.459Z,14.02
2024-01-09T13:18:32.112Z,12.85
2024-01-09T13:30:42.773Z,7.50
2024-01-09T13:34:04.479Z,11.65
2024-01-09T13:39:10.929Z,12.13
2024-01-09T13:44:13.389Z,13.32
2024-01-09T13:49:16.934Z,11.63
2024-01-09T13:54:19.113Z,10.32
2024-01-09T13:59:22.680Z,12.15
2024-01-09T14:04:26.253Z,10.80
2024-01-09T14:09:28.370Z,10.35
2024-01-09T14:14:30.424Z,7.65
2024-01-09T14:19:34.881Z,5.20
2024-01-09T14:24:37.920Z,6.85
2024-01-09T14:29:40.022Z,9.15
2024-01-09T14:34:43.712Z,6.65
2024-01-09T14:39:45.858Z,4.15
2024-01-09T14:44:48.061Z,4.65
2024-01-09T14:49:51.656Z,5.75
2024-01-09T14:55:09.905Z,9.80
2024-01-09T15:00:12.829Z,8.48
2024-01-09T15:05:20.622Z,8.43
2024-01-09T15:10:22.786Z,5.68
2024-01-09T15:15:24.945Z,4.80
2024-01-09T15:20:28.397Z,3.20
2024-01-09T15:25:30.544Z,4.28
2024-01-09T15:30:32.811Z,4.13
2024-01-09T15:35:36.736Z,5.03
2024-01-09T15:40:38.893Z,0.93
2024-01-09T15:45:43.146Z,4.65
2024-01-09T15:50:46.584Z,2.92
2024-01-09T15:55:48.754Z,3.78
2024-01-09T16:00:50.860Z,4.05
2024-01-09T16:05:55.031Z,4.90
2024-01-09T16:10:57.172Z,5.55
2024-01-09T16:16:04.259Z,1.90
2024-01-09T16:21:07.744Z,1.98
2024-01-09T16:26:10.402Z,1.48
2024-01-09T16:31:12.916Z,4.32
2024-01-09T16:36:16.555Z,1.33
2024-01-09T16:41:20.190Z,2.85
2024-01-09T16:46:22.304Z,5.78
2024-01-09T16:51:25.956Z,2.95
2024-01-09T16:56:28.365Z,2.83
2024-01-09T17:01:31.133Z,1.92
2024-01-09T17:06:34.570Z,1.85
2024-01-09T17:11:39.759Z,1.75
2024-01-09T17:16:45.868Z,3.55
2024-01-09T17:21:49.344Z,2.92
2024-01-09T17:26:51.490Z,1.65
2024-01-09T17:31:53.655Z,2.83
2024-01-09T17:36:57.112Z,3.38
2024-01-09T17:41:59.211Z,2.95
2024-01-09T17:47:01.355Z,1.50
2024-01-09T17:52:05.326Z,2.28
2024-01-09T17:57:07.515Z,1.38
2024-01-09T18:02:09.697Z,1.98
2024-01-09T18:07:13.166Z,2.33
2024-01-09T18:12:15.542Z,4.68
2024-01-09T18:17:17.793Z,1.73
2024-01-09T18:22:21.200Z,3.13
2024-01-09T18:27:23.792Z,1.75
2024-01-09T18:32:30.792Z,2.25
2024-01-09T18:37:36.577Z,1.85
2024-01-09T18:42:39.013Z,2.78
2024-01-09T18:47:41.815Z,1.02
2024-01-09T18:52:45.334Z,2.28
2024-01-09T18:57:47.507Z,1.98
2024-01-09T19:02:49.601Z,1.80
2024-01-09T19:07:53.265Z,4.22
2024-01-09T19:12:55.407Z,3.70
2024-01-09T19:17:58.490Z,0.55
2024-01-09T19:23:02.146Z,4.72
2024-01-09T19:28:04.925Z,2.33
2024-01-09T19:33:07.129Z,1.73
2024-01-09T19:38:11.882Z,2.90
2024-01-09T19:43:14.909Z,2.60
2024-01-09T19:48:21.597Z,1.73
2024-01-09T19:53:25.463Z,2.72
2024-01-09T19:58:27.636Z,1.85
2024-01-09T20:03:29.790Z,1.92
2024-01-09T20:08:33.615Z,2.67
2024-01-09T20:13:35.777Z,0.65
2024-01-09T20:18:37.914Z,1.25
2024-01-09T20:23:41.502Z,3.17
2024-01-09T20:28:43.570Z,2.75
2024-01-09T20:33:45.826Z,0.70
2024-01-09T20:38:49.317Z,2.25
2024-01-09T20:43:51.518Z,1.75
2024-01-09T20:48:53.635Z,0.50
2024-01-09T20:53:58.580Z,1.58
2024-01-09T20:59:00.805Z,1.48
2024-01-09T21:04:05.469Z,0.80
2024-01-09T21:09:12.526Z,0.95
2024-01-09T21:14:14.769Z,1.85
2024-01-09T21:19:17.863Z,1.75
2024-01-09T21:24:21.404Z,1.02
2024-01-09T21:29:23.517Z,1.58
2024-01-09T21:34:25.653Z,0.32
2024-01-09T21:39:29.077Z,0.50
2024-01-09T21:44:31.959Z,0.30
2024-01-09T21:49:34.022Z,0.50
2024-01-09T21:54:41.530Z,3.20
2024-01-09T21:59:43.725Z,0.38
2024-01-09T22:04:45.795Z,3.10
2024-01-09T22:09:49.291Z,1.00
2024-01-09T22:14:51.344Z,1.83
2024-01-09T22:19:53.451Z,0.20
2024-01-09T22:24:57.555Z,0.82
2024-01-09T22:29:59.754Z,0.35
2024-01-09T22:35:01.945Z,1.90
2024-01-09T22:40:07.412Z,0.75
2024-01-09T22:45:09.986Z,0.30
2024-01-09T22:50:12.186Z,0.40
2024-01-09T22:55:15.850Z,0.98
2024-01-09T23:00:28.014Z,2.58
2024-01-09T23:05:30.464Z,0.30
2024-01-09T23:10:34.080Z,0.40
2024-01-09T23:15:36.248Z,1.17
2024-01-09T23:20:38.475Z,0.20
2024-01-09T23:25:41.955Z,1.65
2024-01-09T23:30:44.249Z,0.05
2024-01-09T23:35:46.330Z,0.43
2024-01-09T23:40:49.856Z,2.92
2024-01-09T23:45:52.102Z,0.52
2024-01-09T23:50:55.651Z,3.40
2024-01-09T23:55:59.185Z,0.68
